sensor_id;sensor_type;location;lat;lon;timestamp;pressure;altitude;pressure_sealevel;temperature;humidity
63115;BME280;49208;50.874;6.466;2023-01-15T09:27:58;99081.72;;;4.27;97.61
63115;BME280;49208;50.874;6.466;2023-01-15T09:30:23;99075.34;;;4.60;98.46
63115;BME280;49208;50.874;6.466;2023-01-15T09:32:49;99072.16;;;5.28;95.09
63115;BME280;49208;50.874;6.466;2023-01-15T09:35:14;99083.22;;;5.84;90.35
63115;BME280;49208;50.874;6.466;2023-01-15T09:37:40;99087.63;;;6.31;90.10
63115;BME280;49208;50.874;6.466;2023-01-15T09:40:07;99087.84;;;6.47;87.37
63115;BME280;49208;50.874;6.466;2023-01-15T09:45:25;99085.78;;;6.76;86.00
63115;BME280;49208;50.874;6.466;2023-01-15T09:55:47;99076.75;;;7.22;81.63
63115;BME280;49208;50.874;6.466;2023-01-15T09:58:14;99075.97;;;7.20;80.59
63115;BME280;49208;50.874;6.466;2023-01-15T10:00:47;99076.81;;;7.21;79.66
63115;BME280;49208;50.874;6.466;2023-01-15T10:05:48;99078.72;;;7.17;80.45
63115;BME280;49208;50.874;6.466;2023-01-15T10:08:34;99081.41;;;7.36;80.33
63115;BME280;49208;50.874;6.466;2023-01-15T10:11:18;99085.06;;;7.34;78.92
63115;BME280;49208;50.874;6.466;2023-01-15T10:14:02;99099.09;;;7.36;78.04
63115;BME280;49208;50.874;6.466;2023-01-15T10:16:31;99096.59;;;7.33;77.95
63115;BME280;49208;50.874;6.466;2023-01-15T10:19:00;99099.38;;;7.29;77.92
63115;BME280;49208;50.874;6.466;2023-01-15T10:24:28;99113.88;;;7.21;76.07
63115;BME280;49208;50.874;6.466;2023-01-15T10:26:57;99111.16;;;7.22;75.89
63115;BME280;49208;50.874;6.466;2023-01-15T10:31:53;99106.25;;;7.13;76.31
63115;BME280;49208;50.874;6.466;2023-01-15T10:45:00;99113.44;;;7.09;74.85
63115;BME280;49208;50.874;6.466;2023-01-15T10:47:35;99115.56;;;7.22;74.53
63115;BME280;49208;50.874;6.466;2023-01-15T10:50:08;99113.00;;;7.20;75.39
63115;BME280;49208;50.874;6.466;2023-01-15T10:52:39;99111.94;;;7.24;74.58
63115;BME280;49208;50.874;6.466;2023-01-15T10:55:23;99143.84;;;7.42;75.61
63115;BME280;49208;50.874;6.466;2023-01-15T10:58:00;99130.16;;;7.51;73.96
63115;BME280;49208;50.874;6.466;2023-01-15T11:00:28;99129.06;;;7.57;73.30
63115;BME280;49208;50.874;6.466;2023-01-15T11:03:01;99124.34;;;7.63;74.29
63115;BME280;49208;50.874;6.466;2023-01-15T11:05:31;99138.97;;;7.72;73.12
63115;BME280;49208;50.874;6.466;2023-01-15T11:07:58;99144.19;;;7.74;73.34
63115;BME280;49208;50.874;6.466;2023-01-15T11:10:24;99135.03;;;7.81;73.29
63115;BME280;49208;50.874;6.466;2023-01-15T11:13:01;99144.94;;;7.96;72.82
63115;BME280;49208;50.874;6.466;2023-01-15T11:15:55;99135.06;;;8.00;72.57
63115;BME280;49208;50.874;6.466;2023-01-15T11:18:41;99131.84;;;8.12;73.50
63115;BME280;49208;50.874;6.466;2023-01-15T11:21:27;99129.59;;;8.03;71.80
63115;BME280;49208;50.874;6.466;2023-01-15T11:23:56;99124.69;;;7.95;71.18
63115;BME280;49208;50.874;6.466;2023-01-15T11:26:30;99132.91;;;8.08;71.41
63115;BME280;49208;50.874;6.466;2023-01-15T11:28:58;99146.50;;;8.00;70.11
63115;BME280;49208;50.874;6.466;2023-01-15T11:31:36;99145.63;;;7.81;71.12
63115;BME280;49208;50.874;6.466;2023-01-15T11:34:05;99142.69;;;7.68;71.91
63115;BME280;49208;50.874;6.466;2023-01-15T11:36:32;99135.19;;;7.57;72.69
63115;BME280;49208;50.874;6.466;2023-01-15T11:38:58;99139.06;;;7.29;73.12
63115;BME280;49208;50.874;6.466;2023-01-15T11:41:27;99140.84;;;7.08;73.33
63115;BME280;49208;50.874;6.466;2023-01-15T11:44:14;99142.06;;;6.79;74.92
63115;BME280;49208;50.874;6.466;2023-01-15T11:47:00;99135.25;;;6.74;75.50
63115;BME280;49208;50.874;6.466;2023-01-15T11:49:53;99121.28;;;6.70;76.08
63115;BME280;49208;50.874;6.466;2023-01-15T11:52:45;99107.34;;;6.66;75.23
63115;BME280;49208;50.874;6.466;2023-01-15T11:55:15;99106.09;;;6.53;75.79
63115;BME280;49208;50.874;6.466;2023-01-15T11:57:42;99106.59;;;6.41;75.52
63115;BME280;49208;50.874;6.466;2023-01-15T12:00:23;99092.97;;;6.30;75.82
63115;BME280;49208;50.874;6.466;2023-01-15T12:02:51;99097.69;;;6.21;76.50
63115;BME280;49208;50.874;6.466;2023-01-15T12:05:24;99085.72;;;6.13;76.31
63115;BME280;49208;50.874;6.466;2023-01-15T12:07:52;99091.78;;;6.15;78.02
63115;BME280;49208;50.874;6.466;2023-01-15T12:10:20;99103.88;;;6.20;76.84
63115;BME280;49208;50.874;6.466;2023-01-15T12:18:54;99113.44;;;6.68;77.35
63115;BME280;49208;50.874;6.466;2023-01-15T12:33:02;99091.03;;;6.98;73.75
63115;BME280;49208;50.874;6.466;2023-01-15T12:35:32;99091.94;;;6.97;74.07
63115;BME280;49208;50.874;6.466;2023-01-15T12:38:15;99098.50;;;7.08;73.35
63115;BME280;49208;50.874;6.466;2023-01-15T12:40:53;99090.53;;;7.10;72.38
63115;BME280;49208;50.874;6.466;2023-01-15T12:43:24;99079.84;;;7.12;72.31
63115;BME280;49208;50.874;6.466;2023-01-15T12:46:16;99091.63;;;7.04;72.41
63115;BME280;49208;50.874;6.466;2023-01-15T12:48:53;99084.50;;;7.06;73.64
63115;BME280;49208;50.874;6.466;2023-01-15T12:51:49;99098.19;;;7.16;71.90
63115;BME280;49208;50.874;6.466;2023-01-15T12:54:18;99096.97;;;7.23;72.56
63115;BME280;49208;50.874;6.466;2023-01-15T12:59:36;99096.03;;;7.45;71.41
63115;BME280;49208;50.874;6.466;2023-01-15T13:02:20;99098.50;;;7.49;71.88
63115;BME280;49208;50.874;6.466;2023-01-15T13:04:56;99090.56;;;7.49;70.86
63115;BME280;49208;50.874;6.466;2023-01-15T13:07:35;99078.28;;;7.47;70.39
63115;BME280;49208;50.874;6.466;2023-01-15T13:12:32;99083.38;;;7.33;71.25
63115;BME280;49208;50.874;6.466;2023-01-15T13:14:58;99066.16;;;7.22;70.43
63115;BME280;49208;50.874;6.466;2023-01-15T13:20:50;99070.00;;;7.15;71.72
63115;BME280;49208;50.874;6.466;2023-01-15T13:32:24;99072.38;;;7.01;71.17
63115;BME280;49208;50.874;6.466;2023-01-15T13:37:35;99088.56;;;7.14;69.93
63115;BME280;49208;50.874;6.466;2023-01-15T13:42:52;99093.16;;;7.10;69.35
63115;BME280;49208;50.874;6.466;2023-01-15T13:47:48;99096.28;;;6.99;70.96
63115;BME280;49208;50.874;6.466;2023-01-15T13:50:26;99105.31;;;6.94;70.81
63115;BME280;49208;50.874;6.466;2023-01-15T13:53:02;99102.75;;;6.92;71.54
63115;BME280;49208;50.874;6.466;2023-01-15T13:55:33;99109.75;;;6.93;70.55
63115;BME280;49208;50.874;6.466;2023-01-15T13:58:00;99114.63;;;6.82;70.83
63115;BME280;49208;50.874;6.466;2023-01-15T14:02:55;99109.59;;;6.76;71.22
63115;BME280;49208;50.874;6.466;2023-01-15T14:05:28;99127.00;;;6.59;71.80
63115;BME280;49208;50.874;6.466;2023-01-15T14:07:54;99112.38;;;6.51;72.05
63115;BME280;49208;50.874;6.466;2023-01-15T14:10:34;99118.09;;;6.40;72.26
63115;BME280;49208;50.874;6.466;2023-01-15T14:16:31;99124.44;;;6.36;72.05
63115;BME280;49208;50.874;6.466;2023-01-15T14:22:13;99128.22;;;6.28;72.05
63115;BME280;49208;50.874;6.466;2023-01-15T14:25:19;99115.19;;;6.24;72.68
63115;BME280;49208;50.874;6.466;2023-01-15T14:35:44;99136.00;;;6.10;73.79
63115;BME280;49208;50.874;6.466;2023-01-15T14:38:20;99137.03;;;6.05;74.12
63115;BME280;49208;50.874;6.466;2023-01-15T14:40:57;99139.59;;;6.09;73.75
63115;BME280;49208;50.874;6.466;2023-01-15T14:43:28;99136.13;;;6.06;74.30
63115;BME280;49208;50.874;6.466;2023-01-15T14:45:55;99135.28;;;6.06;74.98
63115;BME280;49208;50.874;6.466;2023-01-15T14:48:37;99146.72;;;6.06;74.40
63115;BME280;49208;50.874;6.466;2023-01-15T14:51:27;99140.38;;;6.11;73.39
63115;BME280;49208;50.874;6.466;2023-01-15T14:54:03;99145.78;;;6.07;73.44
63115;BME280;49208;50.874;6.466;2023-01-15T14:56:35;99150.34;;;6.04;74.19
63115;BME280;49208;50.874;6.466;2023-01-15T14:59:13;99147.78;;;6.01;74.09
63115;BME280;49208;50.874;6.466;2023-01-15T15:01:43;99133.19;;;5.91;74.48
63115;BME280;49208;50.874;6.466;2023-01-15T15:04:11;99136.91;;;5.85;75.67
63115;BME280;49208;50.874;6.466;2023-01-15T15:06:45;99136.28;;;5.78;75.71
63115;BME280;49208;50.874;6.466;2023-01-15T15:09:13;99136.53;;;5.71;76.85
63115;BME280;49208;50.874;6.466;2023-01-15T15:11:45;99134.09;;;5.66;76.43
63115;BME280;49208;50.874;6.466;2023-01-15T15:15:10;99150.09;;;5.61;76.95
63115;BME280;49208;50.874;6.466;2023-01-15T15:17:48;99151.97;;;5.58;77.94
63115;BME280;49208;50.874;6.466;2023-01-15T15:20:32;99149.50;;;5.53;78.31
63115;BME280;49208;50.874;6.466;2023-01-15T15:23:30;99145.25;;;5.49;78.74
63115;BME280;49208;50.874;6.466;2023-01-15T15:26:01;99143.47;;;5.50;78.37
63115;BME280;49208;50.874;6.466;2023-01-15T15:28:27;99136.44;;;5.50;78.70
63115;BME280;49208;50.874;6.466;2023-01-15T15:30:55;99144.19;;;5.55;77.95
63115;BME280;49208;50.874;6.466;2023-01-15T15:33:27;99128.13;;;5.61;77.23
63115;BME280;49208;50.874;6.466;2023-01-15T15:35:56;99145.78;;;5.59;77.57
63115;BME280;49208;50.874;6.466;2023-01-15T15:38:24;99145.75;;;5.60;77.81
63115;BME280;49208;50.874;6.466;2023-01-15T15:41:10;99136.00;;;5.62;76.79
63115;BME280;49208;50.874;6.466;2023-01-15T15:43:47;99135.13;;;5.62;76.73
63115;BME280;49208;50.874;6.466;2023-01-15T15:46:34;99135.28;;;5.57;77.63
63115;BME280;49208;50.874;6.466;2023-01-15T15:49:19;99127.28;;;5.60;76.88
63115;BME280;49208;50.874;6.466;2023-01-15T15:51:47;99138.56;;;5.64;76.53
63115;BME280;49208;50.874;6.466;2023-01-15T15:54:22;99123.59;;;5.64;77.28
63115;BME280;49208;50.874;6.466;2023-01-15T16:01:59;99110.72;;;5.55;76.82
63115;BME280;49208;50.874;6.466;2023-01-15T16:04:25;99099.25;;;5.56;76.42
63115;BME280;49208;50.874;6.466;2023-01-15T16:06:51;99116.94;;;5.54;77.04
63115;BME280;49208;50.874;6.466;2023-01-15T16:09:23;99101.19;;;5.51;76.98
63115;BME280;49208;50.874;6.466;2023-01-15T16:11:50;99110.94;;;5.49;77.62
63115;BME280;49208;50.874;6.466;2023-01-15T16:14:16;99117.22;;;5.46;76.81
63115;BME280;49208;50.874;6.466;2023-01-15T16:16:43;99109.25;;;5.48;76.03
63115;BME280;49208;50.874;6.466;2023-01-15T16:19:16;99098.69;;;5.48;76.50
63115;BME280;49208;50.874;6.466;2023-01-15T16:21:44;99102.34;;;5.44;77.11
63115;BME280;49208;50.874;6.466;2023-01-15T16:24:27;99089.31;;;5.39;76.89
63115;BME280;49208;50.874;6.466;2023-01-15T16:26:57;99087.69;;;5.35;76.96
63115;BME280;49208;50.874;6.466;2023-01-15T16:29:26;99088.78;;;5.30;76.88
63115;BME280;49208;50.874;6.466;2023-01-15T16:31:53;99099.44;;;5.26;77.10
63115;BME280;49208;50.874;6.466;2023-01-15T16:34:26;99091.69;;;5.22;78.01
63115;BME280;49208;50.874;6.466;2023-01-15T16:36:53;99096.22;;;5.18;77.64
63115;BME280;49208;50.874;6.466;2023-01-15T16:39:39;99094.56;;;5.16;78.46
63115;BME280;49208;50.874;6.466;2023-01-15T16:44:55;99105.31;;;5.10;78.44
63115;BME280;49208;50.874;6.466;2023-01-15T16:47:24;99094.75;;;5.10;78.64
63115;BME280;49208;50.874;6.466;2023-01-15T16:49:50;99101.00;;;5.07;79.52
63115;BME280;49208;50.874;6.466;2023-01-15T16:52:57;99091.22;;;5.11;78.93
63115;BME280;49208;50.874;6.466;2023-01-15T17:00:38;99111.78;;;5.01;80.11
63115;BME280;49208;50.874;6.466;2023-01-15T17:03:16;99118.72;;;5.03;80.40
63115;BME280;49208;50.874;6.466;2023-01-15T17:05:44;99120.50;;;5.03;82.34
63115;BME280;49208;50.874;6.466;2023-01-15T17:08:21;99130.03;;;5.07;82.04
63115;BME280;49208;50.874;6.466;2023-01-15T17:10:51;99124.63;;;5.10;82.53
63115;BME280;49208;50.874;6.466;2023-01-15T17:13:18;99137.91;;;5.09;82.29
63115;BME280;49208;50.874;6.466;2023-01-15T17:15:44;99135.31;;;5.07;82.77
63115;BME280;49208;50.874;6.466;2023-01-15T17:18:24;99136.06;;;5.11;82.83
63115;BME280;49208;50.874;6.466;2023-01-15T17:20:49;99128.97;;;5.13;82.71
63115;BME280;49208;50.874;6.466;2023-01-15T17:23:15;99138.53;;;5.15;82.60
63115;BME280;49208;50.874;6.466;2023-01-15T17:25:42;99135.03;;;5.15;82.57
63115;BME280;49208;50.874;6.466;2023-01-15T17:28:08;99135.84;;;5.17;82.53
63115;BME280;49208;50.874;6.466;2023-01-15T17:30:36;99139.38;;;5.16;82.57
63115;BME280;49208;50.874;6.466;2023-01-15T17:33:04;99139.38;;;5.16;83.38
63115;BME280;49208;50.874;6.466;2023-01-15T17:35:32;99138.50;;;5.17;82.89
63115;BME280;49208;50.874;6.466;2023-01-15T17:37:58;99141.88;;;5.20;82.77
63115;BME280;49208;50.874;6.466;2023-01-15T17:40:23;99133.22;;;5.17;82.71
63115;BME280;49208;50.874;6.466;2023-01-15T17:42:49;99140.31;;;5.15;82.68
63115;BME280;49208;50.874;6.466;2023-01-15T17:45:24;99137.00;;;5.08;83.58
63115;BME280;49208;50.874;6.466;2023-01-15T17:47:50;99126.84;;;4.97;83.73
63115;BME280;49208;50.874;6.466;2023-01-15T17:50:16;99132.47;;;4.86;84.14
63115;BME280;49208;50.874;6.466;2023-01-15T17:52:42;99131.00;;;4.78;84.37
63115;BME280;49208;50.874;6.466;2023-01-15T17:55:10;99121.56;;;4.71;85.18
63115;BME280;49208;50.874;6.466;2023-01-15T17:57:55;99128.94;;;4.61;85.54
63115;BME280;49208;50.874;6.466;2023-01-15T18:00:38;99123.88;;;4.55;85.73
63115;BME280;49208;50.874;6.466;2023-01-15T18:03:23;99133.66;;;4.50;86.25
63115;BME280;49208;50.874;6.466;2023-01-15T18:06:12;99131.22;;;4.43;86.11
63115;BME280;49208;50.874;6.466;2023-01-15T18:08:39;99141.16;;;4.35;86.58
63115;BME280;49208;50.874;6.466;2023-01-15T18:11:09;99132.56;;;4.29;86.68
63115;BME280;49208;50.874;6.466;2023-01-15T18:13:35;99139.69;;;4.25;87.23
63115;BME280;49208;50.874;6.466;2023-01-15T18:16:00;99135.41;;;4.22;87.62
63115;BME280;49208;50.874;6.466;2023-01-15T18:18:26;99138.16;;;4.19;87.73
63115;BME280;49208;50.874;6.466;2023-01-15T18:20:51;99135.63;;;4.15;87.42
63115;BME280;49208;50.874;6.466;2023-01-15T18:23:17;99131.44;;;4.09;87.59
63115;BME280;49208;50.874;6.466;2023-01-15T18:25:42;99131.50;;;4.06;87.30
63115;BME280;49208;50.874;6.466;2023-01-15T18:28:11;99133.38;;;4.02;87.60
63115;BME280;49208;50.874;6.466;2023-01-15T18:30:37;99129.06;;;4.00;87.20
63115;BME280;49208;50.874;6.466;2023-01-15T18:33:03;99136.16;;;3.98;87.68
63115;BME280;49208;50.874;6.466;2023-01-15T18:35:28;99140.59;;;3.96;87.54
63115;BME280;49208;50.874;6.466;2023-01-15T18:37:54;99130.97;;;3.95;87.25
63115;BME280;49208;50.874;6.466;2023-01-15T18:40:20;99144.06;;;3.96;87.45
63115;BME280;49208;50.874;6.466;2023-01-15T18:42:45;99128.28;;;3.96;87.11
63115;BME280;49208;50.874;6.466;2023-01-15T18:45:29;99139.59;;;4.00;87.32
63115;BME280;49208;50.874;6.466;2023-01-15T18:48:27;99131.69;;;4.00;87.23
63115;BME280;49208;50.874;6.466;2023-01-15T18:50:53;99135.19;;;4.00;87.07
63115;BME280;49208;50.874;6.466;2023-01-15T18:53:20;99132.47;;;4.03;86.43
63115;BME280;49208;50.874;6.466;2023-01-15T18:55:45;99129.66;;;4.10;85.55
63115;BME280;49208;50.874;6.466;2023-01-15T18:58:10;99123.38;;;4.14;86.01
63115;BME280;49208;50.874;6.466;2023-01-15T19:00:36;99132.94;;;4.16;86.04
63115;BME280;49208;50.874;6.466;2023-01-15T19:03:01;99118.75;;;4.22;85.72
63115;BME280;49208;50.874;6.466;2023-01-15T19:05:27;99118.59;;;4.27;85.15
63115;BME280;49208;50.874;6.466;2023-01-15T19:07:52;99113.19;;;4.31;84.34
63115;BME280;49208;50.874;6.466;2023-01-15T19:10:18;99115.72;;;4.34;84.94
63115;BME280;49208;50.874;6.466;2023-01-15T19:12:43;99102.44;;;4.37;83.77
63115;BME280;49208;50.874;6.466;2023-01-15T19:15:12;99105.69;;;4.45;83.41
63115;BME280;49208;50.874;6.466;2023-01-15T19:17:56;99107.28;;;4.51;83.56
63115;BME280;49208;50.874;6.466;2023-01-15T19:20:40;99096.53;;;4.57;83.32
63115;BME280;49208;50.874;6.466;2023-01-15T19:23:06;99097.97;;;4.68;82.36
63115;BME280;49208;50.874;6.466;2023-01-15T19:25:39;99089.91;;;4.72;82.47
63115;BME280;49208;50.874;6.466;2023-01-15T19:28:06;99103.00;;;4.75;82.75
63115;BME280;49208;50.874;6.466;2023-01-15T19:30:32;99087.09;;;4.77;82.68
63115;BME280;49208;50.874;6.466;2023-01-15T19:33:00;99091.47;;;4.78;81.89
63115;BME280;49208;50.874;6.466;2023-01-15T19:35:25;99093.94;;;4.82;82.31
63115;BME280;49208;50.874;6.466;2023-01-15T19:37:50;99090.38;;;4.83;81.65
63115;BME280;49208;50.874;6.466;2023-01-15T19:40:19;99088.56;;;4.85;82.10
63115;BME280;49208;50.874;6.466;2023-01-15T19:42:49;99075.44;;;4.84;81.64
63115;BME280;49208;50.874;6.466;2023-01-15T19:45:33;99065.75;;;4.84;82.23
63115;BME280;49208;50.874;6.466;2023-01-15T19:48:18;99080.72;;;4.84;82.37
63115;BME280;49208;50.874;6.466;2023-01-15T19:51:03;99064.09;;;4.82;82.17
63115;BME280;49208;50.874;6.466;2023-01-15T19:53:28;99063.13;;;4.84;82.03
63115;BME280;49208;50.874;6.466;2023-01-15T19:55:53;99052.34;;;4.91;81.49
63115;BME280;49208;50.874;6.466;2023-01-15T19:58:19;99059.41;;;4.90;81.77
63115;BME280;49208;50.874;6.466;2023-01-15T20:00:46;99053.97;;;4.95;81.30
63115;BME280;49208;50.874;6.466;2023-01-15T20:03:17;99045.13;;;4.96;81.16
63115;BME280;49208;50.874;6.466;2023-01-15T20:05:43;99044.22;;;4.97;81.28
63115;BME280;49208;50.874;6.466;2023-01-15T20:08:08;99036.28;;;4.98;80.75
63115;BME280;49208;50.874;6.466;2023-01-15T20:10:39;99032.63;;;5.02;80.12
63115;BME280;49208;50.874;6.466;2023-01-15T20:13:18;99024.63;;;5.04;80.44
63115;BME280;49208;50.874;6.466;2023-01-15T20:16:14;99019.34;;;5.04;80.46
63115;BME280;49208;50.874;6.466;2023-01-15T20:18:42;99016.84;;;5.01;80.98
63115;BME280;49208;50.874;6.466;2023-01-15T20:21:07;99007.91;;;5.05;79.81
63115;BME280;49208;50.874;6.466;2023-01-15T20:23:36;99016.72;;;5.04;79.82
63115;BME280;49208;50.874;6.466;2023-01-15T20:26:03;99010.63;;;5.02;80.44
63115;BME280;49208;50.874;6.466;2023-01-15T20:28:28;99003.75;;;4.98;80.81
63115;BME280;49208;50.874;6.466;2023-01-15T20:30:54;99006.47;;;4.96;80.87
63115;BME280;49208;50.874;6.466;2023-01-15T20:33:20;98997.84;;;4.91;82.08
63115;BME280;49208;50.874;6.466;2023-01-15T20:35:46;98994.34;;;4.91;81.60
63115;BME280;49208;50.874;6.466;2023-01-15T20:38:13;98993.41;;;4.92;81.22
63115;BME280;49208;50.874;6.466;2023-01-15T20:40:38;98987.25;;;4.93;81.48
63115;BME280;49208;50.874;6.466;2023-01-15T20:43:04;98987.03;;;4.99;80.56
63115;BME280;49208;50.874;6.466;2023-01-15T20:45:48;98993.09;;;5.01;81.59
63115;BME280;49208;50.874;6.466;2023-01-15T20:48:13;98988.63;;;5.03;81.68
63115;BME280;49208;50.874;6.466;2023-01-15T20:50:41;98989.44;;;5.05;81.71
63115;BME280;49208;50.874;6.466;2023-01-15T20:53:08;98975.31;;;5.06;82.61
63115;BME280;49208;50.874;6.466;2023-01-15T20:55:35;98963.03;;;5.06;83.22
63115;BME280;49208;50.874;6.466;2023-01-15T20:58:01;98953.16;;;5.12;83.67
63115;BME280;49208;50.874;6.466;2023-01-15T21:00:28;98961.06;;;5.12;84.67
63115;BME280;49208;50.874;6.466;2023-01-15T21:02:54;98952.41;;;5.08;85.61
63115;BME280;49208;50.874;6.466;2023-01-15T21:05:23;98958.69;;;5.04;86.09
63115;BME280;49208;50.874;6.466;2023-01-15T21:07:48;98943.91;;;5.00;86.82
63115;BME280;49208;50.874;6.466;2023-01-15T21:10:13;98928.25;;;4.95;87.74
63115;BME280;49208;50.874;6.466;2023-01-15T21:12:39;98939.78;;;4.93;88.30
63115;BME280;49208;50.874;6.466;2023-01-15T21:15:05;98929.44;;;4.88;89.06
63115;BME280;49208;50.874;6.466;2023-01-15T21:17:31;98928.84;;;4.80;89.31
63115;BME280;49208;50.874;6.466;2023-01-15T21:19:56;98926.38;;;4.75;89.73
63115;BME280;49208;50.874;6.466;2023-01-15T21:22:21;98918.75;;;4.68;89.96
63115;BME280;49208;50.874;6.466;2023-01-15T21:24:47;98921.56;;;4.63;89.88
63115;BME280;49208;50.874;6.466;2023-01-15T21:27:13;98910.25;;;4.59;90.51
63115;BME280;49208;50.874;6.466;2023-01-15T21:29:39;98914.00;;;4.52;90.40
63115;BME280;49208;50.874;6.466;2023-01-15T21:32:04;98909.66;;;4.51;90.99
63115;BME280;49208;50.874;6.466;2023-01-15T21:34:30;98894.88;;;4.47;90.26
63115;BME280;49208;50.874;6.466;2023-01-15T21:36:55;98886.34;;;4.40;90.85
63115;BME280;49208;50.874;6.466;2023-01-15T21:39:21;98876.66;;;4.41;89.51
63115;BME280;49208;50.874;6.466;2023-01-15T21:41:46;98883.78;;;4.37;90.12
63115;BME280;49208;50.874;6.466;2023-01-15T21:44:30;98883.16;;;4.31;90.46
63115;BME280;49208;50.874;6.466;2023-01-15T21:47:13;98871.19;;;4.22;90.43
63115;BME280;49208;50.874;6.466;2023-01-15T21:49:40;98864.31;;;4.18;90.93
63115;BME280;49208;50.874;6.466;2023-01-15T21:52:16;98870.59;;;4.14;91.11
63115;BME280;49208;50.874;6.466;2023-01-15T21:54:42;98871.66;;;4.08;90.88
63115;BME280;49208;50.874;6.466;2023-01-15T21:57:08;98859.50;;;4.04;90.91
63115;BME280;49208;50.874;6.466;2023-01-15T21:59:34;98856.91;;;4.02;91.48
63115;BME280;49208;50.874;6.466;2023-01-15T22:02:00;98842.06;;;4.01;91.12
63115;BME280;49208;50.874;6.466;2023-01-15T22:04:27;98847.28;;;4.03;90.89
63115;BME280;49208;50.874;6.466;2023-01-15T22:06:54;98848.13;;;4.03;90.76
63115;BME280;49208;50.874;6.466;2023-01-15T22:09:20;98849.94;;;4.01;90.79
63115;BME280;49208;50.874;6.466;2023-01-15T22:11:47;98844.72;;;4.00;91.23
63115;BME280;49208;50.874;6.466;2023-01-15T22:14:24;98843.13;;;3.96;91.16
63115;BME280;49208;50.874;6.466;2023-01-15T22:16:51;98843.16;;;3.94;91.90
63115;BME280;49208;50.874;6.466;2023-01-15T22:19:21;98827.44;;;3.93;92.07
63115;BME280;49208;50.874;6.466;2023-01-15T22:21:48;98832.63;;;3.94;92.39
63115;BME280;49208;50.874;6.466;2023-01-15T22:24:15;98823.03;;;3.93;92.40
63115;BME280;49208;50.874;6.466;2023-01-15T22:26:41;98821.31;;;3.92;92.85
63115;BME280;49208;50.874;6.466;2023-01-15T22:29:09;98819.53;;;3.93;92.71
63115;BME280;49208;50.874;6.466;2023-01-15T22:31:38;98814.13;;;3.97;92.14
63115;BME280;49208;50.874;6.466;2023-01-15T22:34:04;98803.19;;;4.08;91.52
63115;BME280;49208;50.874;6.466;2023-01-15T22:36:29;98808.19;;;4.16;91.06
63115;BME280;49208;50.874;6.466;2023-01-15T22:38:55;98813.19;;;4.23;90.38
63115;BME280;49208;50.874;6.466;2023-01-15T22:41:20;98805.94;;;4.30;89.76
63115;BME280;49208;50.874;6.466;2023-01-15T22:44:05;98798.03;;;4.30;90.25
63115;BME280;49208;50.874;6.466;2023-01-15T22:46:32;98799.91;;;4.27;90.91
63115;BME280;49208;50.874;6.466;2023-01-15T22:48:57;98802.53;;;4.27;91.00
63115;BME280;49208;50.874;6.466;2023-01-15T22:51:23;98790.13;;;4.30;90.81
63115;BME280;49208;50.874;6.466;2023-01-15T22:53:51;98791.78;;;4.33;90.64
63115;BME280;49208;50.874;6.466;2023-01-15T22:56:17;98792.34;;;4.41;90.69
63115;BME280;49208;50.874;6.466;2023-01-15T22:58:42;98783.47;;;4.43;91.27
